Candler, Florida
Current Conditions -  °F | °C
As of 10:50 AM on Sunday 21 Dec 2014 (Local Time) from KOCF Reporting Station
Haze Haze  
Wind Chill: 63°   Ceiling: 400
Heat Index: 63°   Visibility: 4mi
Dew Point: 59°   Wind: 5mph
Humidity: 88%   Direction: 50°NE
Pressure: 30.13"   Gusts: NA
Location:  29.07°N, 81.97°W
Report Text: KOCF 211550Z 05004KT 4SM BR OVC004 17/15 A3013
Loading
Personal Weather Stations






























Interactive Weather Map New forecast layout! Learn more

10-Day Weather Forecast

Advertisements
Track Severe Weather on mobile